sensor_id;sensor_type;location;lat;lon;timestamp;P1;durP1;ratioP1;P2;durP2;ratioP2
58950;SDS011;44730;53.158;6.398;2022-11-20T00:03:39;31.73;;;22.80;;
58950;SDS011;44730;53.158;6.398;2022-11-20T00:06:11;30.25;;;22.25;;
58950;SDS011;44730;53.158;6.398;2022-11-20T00:08:38;31.63;;;21.05;;
58950;SDS011;44730;53.158;6.398;2022-11-20T00:11:05;28.80;;;20.73;;
58950;SDS011;44730;53.158;6.398;2022-11-20T00:13:35;30.10;;;21.08;;
58950;SDS011;44730;53.158;6.398;2022-11-20T00:16:02;29.75;;;21.25;;
58950;SDS011;44730;53.158;6.398;2022-11-20T00:18:30;33.47;;;22.45;;
58950;SDS011;44730;53.158;6.398;2022-11-20T00:21:01;27.23;;;19.05;;
58950;SDS011;44730;53.158;6.398;2022-11-20T00:23:28;24.95;;;18.63;;
58950;SDS011;44730;53.158;6.398;2022-11-20T00:25:53;27.20;;;18.77;;
58950;SDS011;44730;53.158;6.398;2022-11-20T00:28:19;23.92;;;18.00;;
58950;SDS011;44730;53.158;6.398;2022-11-20T00:30:49;24.58;;;16.38;;
58950;SDS011;44730;53.158;6.398;2022-11-20T00:33:15;25.95;;;17.90;;
58950;SDS011;44730;53.158;6.398;2022-11-20T00:35:41;29.05;;;18.10;;
58950;SDS011;44730;53.158;6.398;2022-11-20T00:38:06;25.23;;;17.23;;
58950;SDS011;44730;53.158;6.398;2022-11-20T00:40:32;22.35;;;16.17;;
58950;SDS011;44730;53.158;6.398;2022-11-20T00:43:00;19.85;;;14.38;;
58950;SDS011;44730;53.158;6.398;2022-11-20T00:45:26;20.17;;;14.60;;
58950;SDS011;44730;53.158;6.398;2022-11-20T00:47:52;20.00;;;14.98;;
58950;SDS011;44730;53.158;6.398;2022-11-20T00:50:18;18.13;;;13.82;;
58950;SDS011;44730;53.158;6.398;2022-11-20T00:52:43;19.88;;;13.70;;
58950;SDS011;44730;53.158;6.398;2022-11-20T00:55:09;21.08;;;13.93;;
58950;SDS011;44730;53.158;6.398;2022-11-20T00:57:35;18.60;;;12.98;;
58950;SDS011;44730;53.158;6.398;2022-11-20T01:00:00;18.85;;;13.80;;
58950;SDS011;44730;53.158;6.398;2022-11-20T01:02:29;19.95;;;14.60;;
58950;SDS011;44730;53.158;6.398;2022-11-20T01:04:55;19.83;;;14.23;;
58950;SDS011;44730;53.158;6.398;2022-11-20T01:07:21;18.65;;;13.88;;
58950;SDS011;44730;53.158;6.398;2022-11-20T01:09:46;19.55;;;13.65;;
58950;SDS011;44730;53.158;6.398;2022-11-20T01:12:12;22.33;;;14.95;;
58950;SDS011;44730;53.158;6.398;2022-11-20T01:14:38;19.55;;;14.32;;
58950;SDS011;44730;53.158;6.398;2022-11-20T01:17:04;18.98;;;13.23;;
58950;SDS011;44730;53.158;6.398;2022-11-20T01:19:29;18.67;;;12.63;;
58950;SDS011;44730;53.158;6.398;2022-11-20T01:21:55;18.25;;;14.10;;
58950;SDS011;44730;53.158;6.398;2022-11-20T01:24:21;18.33;;;13.65;;
58950;SDS011;44730;53.158;6.398;2022-11-20T01:26:48;18.35;;;13.68;;
58950;SDS011;44730;53.158;6.398;2022-11-20T01:29:17;17.25;;;12.90;;
58950;SDS011;44730;53.158;6.398;2022-11-20T01:31:47;17.27;;;12.50;;
58950;SDS011;44730;53.158;6.398;2022-11-20T01:34:14;17.27;;;12.77;;
58950;SDS011;44730;53.158;6.398;2022-11-20T01:36:42;18.40;;;12.90;;
58950;SDS011;44730;53.158;6.398;2022-11-20T01:39:14;16.10;;;11.75;;
58950;SDS011;44730;53.158;6.398;2022-11-20T01:41:42;18.95;;;12.32;;
58950;SDS011;44730;53.158;6.398;2022-11-20T01:47:28;17.27;;;12.00;;
58950;SDS011;44730;53.158;6.398;2022-11-20T01:50:18;17.23;;;12.43;;
58950;SDS011;44730;53.158;6.398;2022-11-20T01:52:50;15.82;;;11.77;;
58950;SDS011;44730;53.158;6.398;2022-11-20T01:55:27;16.77;;;11.60;;
58950;SDS011;44730;53.158;6.398;2022-11-20T01:58:00;19.00;;;12.50;;
58950;SDS011;44730;53.158;6.398;2022-11-20T02:00:30;16.45;;;11.63;;
58950;SDS011;44730;53.158;6.398;2022-11-20T02:02:58;19.30;;;12.50;;
58950;SDS011;44730;53.158;6.398;2022-11-20T02:08:05;19.10;;;13.45;;
58950;SDS011;44730;53.158;6.398;2022-11-20T02:10:32;17.00;;;12.30;;
58950;SDS011;44730;53.158;6.398;2022-11-20T02:12:58;16.63;;;12.43;;
58950;SDS011;44730;53.158;6.398;2022-11-20T02:15:43;15.52;;;11.60;;
58950;SDS011;44730;53.158;6.398;2022-11-20T02:18:09;15.73;;;11.23;;
58950;SDS011;44730;53.158;6.398;2022-11-20T02:20:39;17.10;;;11.20;;
58950;SDS011;44730;53.158;6.398;2022-11-20T02:23:19;16.88;;;11.52;;
58950;SDS011;44730;53.158;6.398;2022-11-20T02:25:57;17.00;;;11.77;;
58950;SDS011;44730;53.158;6.398;2022-11-20T02:28:25;14.98;;;10.60;;
58950;SDS011;44730;53.158;6.398;2022-11-20T02:30:52;17.27;;;11.25;;
58950;SDS011;44730;53.158;6.398;2022-11-20T02:33:18;17.67;;;11.27;;
58950;SDS011;44730;53.158;6.398;2022-11-20T02:35:46;15.85;;;11.45;;
58950;SDS011;44730;53.158;6.398;2022-11-20T02:38:12;15.68;;;10.70;;
58950;SDS011;44730;53.158;6.398;2022-11-20T02:40:39;16.38;;;11.30;;
58950;SDS011;44730;53.158;6.398;2022-11-20T02:43:05;18.05;;;11.98;;
58950;SDS011;44730;53.158;6.398;2022-11-20T02:45:32;16.20;;;11.63;;
58950;SDS011;44730;53.158;6.398;2022-11-20T02:47:58;16.52;;;11.50;;
58950;SDS011;44730;53.158;6.398;2022-11-20T02:50:23;14.65;;;11.63;;
58950;SDS011;44730;53.158;6.398;2022-11-20T02:52:49;16.15;;;11.30;;
58950;SDS011;44730;53.158;6.398;2022-11-20T02:55:15;18.23;;;11.82;;
58950;SDS011;44730;53.158;6.398;2022-11-20T02:57:44;16.48;;;11.65;;
58950;SDS011;44730;53.158;6.398;2022-11-20T03:00:13;16.35;;;11.85;;
58950;SDS011;44730;53.158;6.398;2022-11-20T03:02:39;16.85;;;11.70;;
58950;SDS011;44730;53.158;6.398;2022-11-20T03:05:07;15.65;;;10.43;;
58950;SDS011;44730;53.158;6.398;2022-11-20T03:07:35;15.05;;;10.88;;
58950;SDS011;44730;53.158;6.398;2022-11-20T03:10:01;15.98;;;10.90;;
58950;SDS011;44730;53.158;6.398;2022-11-20T03:12:27;16.85;;;10.65;;
58950;SDS011;44730;53.158;6.398;2022-11-20T03:14:53;16.15;;;10.77;;
58950;SDS011;44730;53.158;6.398;2022-11-20T03:17:19;15.75;;;11.23;;
58950;SDS011;44730;53.158;6.398;2022-11-20T03:19:45;18.52;;;11.20;;
58950;SDS011;44730;53.158;6.398;2022-11-20T03:22:11;15.77;;;10.60;;
58950;SDS011;44730;53.158;6.398;2022-11-20T03:24:36;17.48;;;10.88;;
58950;SDS011;44730;53.158;6.398;2022-11-20T03:27:02;14.85;;;10.63;;
58950;SDS011;44730;53.158;6.398;2022-11-20T03:29:28;15.48;;;10.88;;
58950;SDS011;44730;53.158;6.398;2022-11-20T03:31:54;14.82;;;10.38;;
58950;SDS011;44730;53.158;6.398;2022-11-20T03:34:19;16.45;;;10.73;;
58950;SDS011;44730;53.158;6.398;2022-11-20T03:36:48;15.77;;;10.60;;
58950;SDS011;44730;53.158;6.398;2022-11-20T03:39:13;15.45;;;10.70;;
58950;SDS011;44730;53.158;6.398;2022-11-20T03:41:42;16.95;;;10.82;;
58950;SDS011;44730;53.158;6.398;2022-11-20T03:44:11;15.07;;;10.30;;
58950;SDS011;44730;53.158;6.398;2022-11-20T03:46:37;20.33;;;10.32;;
58950;SDS011;44730;53.158;6.398;2022-11-20T03:49:06;15.00;;;10.13;;
58950;SDS011;44730;53.158;6.398;2022-11-20T03:51:33;14.23;;;9.98;;
58950;SDS011;44730;53.158;6.398;2022-11-20T03:54:01;12.27;;;9.50;;
58950;SDS011;44730;53.158;6.398;2022-11-20T03:56:33;15.00;;;9.98;;
58950;SDS011;44730;53.158;6.398;2022-11-20T03:59:04;13.65;;;9.80;;
58950;SDS011;44730;53.158;6.398;2022-11-20T04:01:34;14.15;;;9.95;;
58950;SDS011;44730;53.158;6.398;2022-11-20T04:04:02;13.38;;;9.27;;
58950;SDS011;44730;53.158;6.398;2022-11-20T04:06:29;13.13;;;9.20;;
58950;SDS011;44730;53.158;6.398;2022-11-20T04:08:58;11.85;;;8.32;;
58950;SDS011;44730;53.158;6.398;2022-11-20T04:11:25;14.20;;;8.95;;
58950;SDS011;44730;53.158;6.398;2022-11-20T04:13:55;13.05;;;9.00;;
58950;SDS011;44730;53.158;6.398;2022-11-20T04:16:24;12.20;;;8.40;;
58950;SDS011;44730;53.158;6.398;2022-11-20T04:18:51;12.60;;;8.73;;
58950;SDS011;44730;53.158;6.398;2022-11-20T04:21:23;12.52;;;8.90;;
58950;SDS011;44730;53.158;6.398;2022-11-20T04:23:51;12.30;;;8.10;;
58950;SDS011;44730;53.158;6.398;2022-11-20T04:26:18;12.10;;;8.57;;
58950;SDS011;44730;53.158;6.398;2022-11-20T04:28:53;12.52;;;8.80;;
58950;SDS011;44730;53.158;6.398;2022-11-20T04:31:20;12.82;;;9.30;;
58950;SDS011;44730;53.158;6.398;2022-11-20T04:33:48;12.75;;;8.48;;
58950;SDS011;44730;53.158;6.398;2022-11-20T04:36:19;11.75;;;8.45;;
58950;SDS011;44730;53.158;6.398;2022-11-20T04:38:46;12.70;;;8.82;;
58950;SDS011;44730;53.158;6.398;2022-11-20T04:41:16;14.52;;;9.43;;
58950;SDS011;44730;53.158;6.398;2022-11-20T04:43:51;12.50;;;8.48;;
58950;SDS011;44730;53.158;6.398;2022-11-20T04:46:19;16.17;;;9.40;;
58950;SDS011;44730;53.158;6.398;2022-11-20T04:48:46;11.88;;;8.25;;
58950;SDS011;44730;53.158;6.398;2022-11-20T04:51:12;11.13;;;8.38;;
58950;SDS011;44730;53.158;6.398;2022-11-20T04:53:38;14.35;;;8.65;;
58950;SDS011;44730;53.158;6.398;2022-11-20T04:56:05;12.10;;;8.90;;
58950;SDS011;44730;53.158;6.398;2022-11-20T04:58:32;11.73;;;8.30;;
58950;SDS011;44730;53.158;6.398;2022-11-20T05:01:06;11.95;;;8.18;;
58950;SDS011;44730;53.158;6.398;2022-11-20T05:03:37;10.23;;;7.72;;
58950;SDS011;44730;53.158;6.398;2022-11-20T05:06:04;11.02;;;8.55;;
58950;SDS011;44730;53.158;6.398;2022-11-20T05:08:31;11.82;;;8.75;;
58950;SDS011;44730;53.158;6.398;2022-11-20T05:11:04;11.07;;;7.38;;
58950;SDS011;44730;53.158;6.398;2022-11-20T05:13:32;11.45;;;7.88;;
58950;SDS011;44730;53.158;6.398;2022-11-20T05:16:04;12.85;;;8.50;;
58950;SDS011;44730;53.158;6.398;2022-11-20T05:18:35;11.57;;;8.35;;
58950;SDS011;44730;53.158;6.398;2022-11-20T05:21:05;12.35;;;8.02;;
58950;SDS011;44730;53.158;6.398;2022-11-20T05:23:31;12.30;;;8.48;;
58950;SDS011;44730;53.158;6.398;2022-11-20T05:25:57;10.52;;;8.23;;
58950;SDS011;44730;53.158;6.398;2022-11-20T05:28:24;10.98;;;8.02;;
58950;SDS011;44730;53.158;6.398;2022-11-20T05:30:51;12.00;;;7.82;;
58950;SDS011;44730;53.158;6.398;2022-11-20T05:33:17;10.15;;;7.80;;
58950;SDS011;44730;53.158;6.398;2022-11-20T05:35:43;11.55;;;8.27;;
58950;SDS011;44730;53.158;6.398;2022-11-20T05:38:09;11.57;;;8.05;;
58950;SDS011;44730;53.158;6.398;2022-11-20T05:40:35;11.82;;;7.80;;
58950;SDS011;44730;53.158;6.398;2022-11-20T05:43:01;11.45;;;7.68;;
58950;SDS011;44730;53.158;6.398;2022-11-20T05:45:27;12.52;;;8.50;;
58950;SDS011;44730;53.158;6.398;2022-11-20T05:47:52;9.55;;;7.53;;
58950;SDS011;44730;53.158;6.398;2022-11-20T05:50:18;10.07;;;7.55;;
58950;SDS011;44730;53.158;6.398;2022-11-20T05:52:44;11.20;;;7.88;;
58950;SDS011;44730;53.158;6.398;2022-11-20T05:55:10;12.77;;;8.50;;
58950;SDS011;44730;53.158;6.398;2022-11-20T05:57:36;9.55;;;7.18;;
58950;SDS011;44730;53.158;6.398;2022-11-20T06:00:03;11.57;;;7.80;;
58950;SDS011;44730;53.158;6.398;2022-11-20T06:02:29;11.05;;;7.78;;
58950;SDS011;44730;53.158;6.398;2022-11-20T06:04:55;11.80;;;8.35;;
58950;SDS011;44730;53.158;6.398;2022-11-20T06:07:21;11.75;;;8.32;;
58950;SDS011;44730;53.158;6.398;2022-11-20T06:09:46;12.00;;;8.23;;
58950;SDS011;44730;53.158;6.398;2022-11-20T06:12:12;11.82;;;7.78;;
58950;SDS011;44730;53.158;6.398;2022-11-20T06:14:38;11.27;;;8.43;;
58950;SDS011;44730;53.158;6.398;2022-11-20T06:17:04;13.27;;;8.13;;
58950;SDS011;44730;53.158;6.398;2022-11-20T06:19:29;11.75;;;7.50;;
58950;SDS011;44730;53.158;6.398;2022-11-20T06:21:55;12.57;;;8.30;;
58950;SDS011;44730;53.158;6.398;2022-11-20T06:24:21;12.40;;;8.70;;
58950;SDS011;44730;53.158;6.398;2022-11-20T06:26:47;9.82;;;7.40;;
58950;SDS011;44730;53.158;6.398;2022-11-20T06:29:13;11.20;;;7.97;;
58950;SDS011;44730;53.158;6.398;2022-11-20T06:31:39;13.43;;;8.10;;
58950;SDS011;44730;53.158;6.398;2022-11-20T06:34:07;11.77;;;7.70;;
58950;SDS011;44730;53.158;6.398;2022-11-20T06:36:33;10.88;;;8.07;;
58950;SDS011;44730;53.158;6.398;2022-11-20T06:38:59;11.95;;;8.27;;
58950;SDS011;44730;53.158;6.398;2022-11-20T06:41:25;11.07;;;7.80;;
58950;SDS011;44730;53.158;6.398;2022-11-20T06:43:54;11.27;;;7.82;;
58950;SDS011;44730;53.158;6.398;2022-11-20T06:46:21;10.75;;;7.88;;
58950;SDS011;44730;53.158;6.398;2022-11-20T06:48:47;10.90;;;7.97;;
58950;SDS011;44730;53.158;6.398;2022-11-20T06:51:16;10.75;;;7.63;;
58950;SDS011;44730;53.158;6.398;2022-11-20T06:53:42;10.90;;;8.00;;
58950;SDS011;44730;53.158;6.398;2022-11-20T06:56:11;10.38;;;7.32;;
58950;SDS011;44730;53.158;6.398;2022-11-20T06:58:37;12.32;;;8.27;;
58950;SDS011;44730;53.158;6.398;2022-11-20T07:01:07;10.18;;;7.53;;
58950;SDS011;44730;53.158;6.398;2022-11-20T07:06:03;11.60;;;8.10;;
58950;SDS011;44730;53.158;6.398;2022-11-20T07:08:29;10.73;;;7.53;;
58950;SDS011;44730;53.158;6.398;2022-11-20T07:11:02;13.02;;;8.65;;
58950;SDS011;44730;53.158;6.398;2022-11-20T07:13:33;12.18;;;8.15;;
58950;SDS011;44730;53.158;6.398;2022-11-20T07:16:00;10.75;;;7.75;;
58950;SDS011;44730;53.158;6.398;2022-11-20T07:18:27;13.10;;;8.45;;
58950;SDS011;44730;53.158;6.398;2022-11-20T07:20:53;11.63;;;7.97;;
58950;SDS011;44730;53.158;6.398;2022-11-20T07:23:26;10.80;;;7.82;;
58950;SDS011;44730;53.158;6.398;2022-11-20T07:25:52;11.13;;;8.27;;
58950;SDS011;44730;53.158;6.398;2022-11-20T07:28:18;11.73;;;8.05;;
58950;SDS011;44730;53.158;6.398;2022-11-20T07:30:49;11.10;;;7.97;;
58950;SDS011;44730;53.158;6.398;2022-11-20T07:33:18;11.82;;;7.78;;
58950;SDS011;44730;53.158;6.398;2022-11-20T07:35:47;12.48;;;8.48;;
58950;SDS011;44730;53.158;6.398;2022-11-20T07:38:13;13.00;;;8.88;;
58950;SDS011;44730;53.158;6.398;2022-11-20T07:40:41;12.05;;;8.23;;
58950;SDS011;44730;53.158;6.398;2022-11-20T07:43:09;12.90;;;9.30;;
58950;SDS011;44730;53.158;6.398;2022-11-20T07:45:48;14.55;;;9.00;;
58950;SDS011;44730;53.158;6.398;2022-11-20T07:48:18;12.40;;;8.35;;
58950;SDS011;44730;53.158;6.398;2022-11-20T07:50:44;15.68;;;9.10;;
58950;SDS011;44730;53.158;6.398;2022-11-20T07:53:13;12.98;;;8.63;;
58950;SDS011;44730;53.158;6.398;2022-11-20T07:55:39;13.05;;;9.38;;
58950;SDS011;44730;53.158;6.398;2022-11-20T07:58:05;15.30;;;10.18;;
58950;SDS011;44730;53.158;6.398;2022-11-20T08:00:33;14.00;;;8.90;;
58950;SDS011;44730;53.158;6.398;2022-11-20T08:02:59;12.63;;;9.60;;
58950;SDS011;44730;53.158;6.398;2022-11-20T08:05:29;12.73;;;8.93;;
58950;SDS011;44730;53.158;6.398;2022-11-20T08:08:04;14.30;;;9.38;;
58950;SDS011;44730;53.158;6.398;2022-11-20T08:10:37;11.60;;;8.50;;
58950;SDS011;44730;53.158;6.398;2022-11-20T08:13:09;11.95;;;8.40;;
58950;SDS011;44730;53.158;6.398;2022-11-20T08:15:55;10.98;;;8.02;;
58950;SDS011;44730;53.158;6.398;2022-11-20T08:18:21;12.30;;;8.60;;
58950;SDS011;44730;53.158;6.398;2022-11-20T08:20:47;13.63;;;9.23;;
58950;SDS011;44730;53.158;6.398;2022-11-20T08:23:18;14.32;;;8.45;;
58950;SDS011;44730;53.158;6.398;2022-11-20T08:25:48;11.82;;;7.90;;
58950;SDS011;44730;53.158;6.398;2022-11-20T08:28:17;12.07;;;8.38;;
58950;SDS011;44730;53.158;6.398;2022-11-20T08:30:43;11.82;;;7.78;;
58950;SDS011;44730;53.158;6.398;2022-11-20T08:33:09;11.52;;;8.38;;
58950;SDS011;44730;53.158;6.398;2022-11-20T08:35:38;11.32;;;8.20;;
58950;SDS011;44730;53.158;6.398;2022-11-20T08:38:06;12.07;;;8.80;;
58950;SDS011;44730;53.158;6.398;2022-11-20T08:40:34;11.77;;;8.48;;
58950;SDS011;44730;53.158;6.398;2022-11-20T08:43:05;13.13;;;8.20;;
58950;SDS011;44730;53.158;6.398;2022-11-20T08:45:34;11.02;;;8.02;;
58950;SDS011;44730;53.158;6.398;2022-11-20T08:48:01;13.10;;;9.13;;
58950;SDS011;44730;53.158;6.398;2022-11-20T08:50:27;13.57;;;8.55;;
58950;SDS011;44730;53.158;6.398;2022-11-20T08:53:06;10.80;;;7.65;;
58950;SDS011;44730;53.158;6.398;2022-11-20T08:55:32;12.68;;;8.88;;
58950;SDS011;44730;53.158;6.398;2022-11-20T08:58:05;14.50;;;8.82;;
58950;SDS011;44730;53.158;6.398;2022-11-20T09:00:31;10.77;;;8.18;;
58950;SDS011;44730;53.158;6.398;2022-11-20T09:03:00;13.55;;;8.20;;
58950;SDS011;44730;53.158;6.398;2022-11-20T09:05:27;11.68;;;8.18;;
58950;SDS011;44730;53.158;6.398;2022-11-20T09:07:56;11.02;;;8.15;;
58950;SDS011;44730;53.158;6.398;2022-11-20T09:10:22;12.15;;;7.90;;
58950;SDS011;44730;53.158;6.398;2022-11-20T09:12:48;12.85;;;8.88;;
58950;SDS011;44730;53.158;6.398;2022-11-20T09:15:15;10.65;;;7.47;;
58950;SDS011;44730;53.158;6.398;2022-11-20T09:17:41;9.93;;;7.28;;
58950;SDS011;44730;53.158;6.398;2022-11-20T09:20:07;12.40;;;8.40;;
58950;SDS011;44730;53.158;6.398;2022-11-20T09:22:33;10.68;;;8.20;;
58950;SDS011;44730;53.158;6.398;2022-11-20T09:24:59;12.75;;;8.15;;
58950;SDS011;44730;53.158;6.398;2022-11-20T09:27:25;14.00;;;7.90;;
58950;SDS011;44730;53.158;6.398;2022-11-20T09:29:50;11.23;;;7.97;;
58950;SDS011;44730;53.158;6.398;2022-11-20T09:32:16;9.98;;;7.32;;
58950;SDS011;44730;53.158;6.398;2022-11-20T09:34:42;9.93;;;7.18;;
58950;SDS011;44730;53.158;6.398;2022-11-20T09:37:11;12.25;;;8.32;;
58950;SDS011;44730;53.158;6.398;2022-11-20T09:39:37;11.23;;;8.00;;
58950;SDS011;44730;53.158;6.398;2022-11-20T09:48:26;11.48;;;7.55;;
58950;SDS011;44730;53.158;6.398;2022-11-20T09:56:19;9.63;;;6.53;;
58950;SDS011;44730;53.158;6.398;2022-11-20T09:58:52;10.25;;;7.68;;
58950;SDS011;44730;53.158;6.398;2022-11-20T10:01:23;11.93;;;7.40;;
58950;SDS011;44730;53.158;6.398;2022-11-20T10:09:44;10.02;;;7.03;;
58950;SDS011;44730;53.158;6.398;2022-11-20T10:15:26;11.02;;;7.68;;
58950;SDS011;44730;53.158;6.398;2022-11-20T10:24:07;10.90;;;7.57;;
58950;SDS011;44730;53.158;6.398;2022-11-20T10:26:58;10.63;;;7.05;;
58950;SDS011;44730;53.158;6.398;2022-11-20T10:29:41;9.43;;;7.18;;
58950;SDS011;44730;53.158;6.398;2022-11-20T10:32:13;8.98;;;6.97;;
58950;SDS011;44730;53.158;6.398;2022-11-20T10:34:47;8.98;;;7.38;;
58950;SDS011;44730;53.158;6.398;2022-11-20T10:37:24;11.88;;;8.05;;
58950;SDS011;44730;53.158;6.398;2022-11-20T10:40:01;9.63;;;7.63;;
58950;SDS011;44730;53.158;6.398;2022-11-20T10:42:43;10.32;;;8.02;;
58950;SDS011;44730;53.158;6.398;2022-11-20T10:45:19;9.25;;;7.85;;
58950;SDS011;44730;53.158;6.398;2022-11-20T10:47:51;9.32;;;7.68;;
58950;SDS011;44730;53.158;6.398;2022-11-20T10:50:33;10.30;;;7.82;;
58950;SDS011;44730;53.158;6.398;2022-11-20T10:56:05;11.88;;;7.65;;
58950;SDS011;44730;53.158;6.398;2022-11-20T11:04:17;9.38;;;7.28;;
58950;SDS011;44730;53.158;6.398;2022-11-20T11:10:14;10.13;;;7.45;;
58950;SDS011;44730;53.158;6.398;2022-11-20T11:12:49;10.05;;;7.28;;
58950;SDS011;44730;53.158;6.398;2022-11-20T11:15:27;9.85;;;7.45;;
58950;SDS011;44730;53.158;6.398;2022-11-20T11:18:04;8.98;;;6.28;;
58950;SDS011;44730;53.158;6.398;2022-11-20T11:20:32;11.07;;;7.95;;
58950;SDS011;44730;53.158;6.398;2022-11-20T11:22:58;8.65;;;6.88;;
58950;SDS011;44730;53.158;6.398;2022-11-20T11:25:29;9.18;;;7.13;;
58950;SDS011;44730;53.158;6.398;2022-11-20T11:27:59;10.70;;;7.60;;
58950;SDS011;44730;53.158;6.398;2022-11-20T11:30:29;8.38;;;6.75;;
58950;SDS011;44730;53.158;6.398;2022-11-20T11:33:17;10.73;;;7.85;;
58950;SDS011;44730;53.158;6.398;2022-11-20T11:35:46;10.27;;;7.78;;
58950;SDS011;44730;53.158;6.398;2022-11-20T11:38:16;10.15;;;7.93;;
58950;SDS011;44730;53.158;6.398;2022-11-20T11:40:44;8.52;;;6.72;;
58950;SDS011;44730;53.158;6.398;2022-11-20T11:43:31;8.18;;;6.60;;
58950;SDS011;44730;53.158;6.398;2022-11-20T11:54:55;7.53;;;6.32;;
58950;SDS011;44730;53.158;6.398;2022-11-20T11:58:11;6.82;;;5.60;;
58950;SDS011;44730;53.158;6.398;2022-11-20T12:00:25;6.80;;;5.03;;
58950;SDS011;44730;53.158;6.398;2022-11-20T12:03:09;6.65;;;5.38;;
58950;SDS011;44730;53.158;6.398;2022-11-20T12:06:00;7.47;;;5.78;;
58950;SDS011;44730;53.158;6.398;2022-11-20T12:08:43;6.05;;;4.72;;
58950;SDS011;44730;53.158;6.398;2022-11-20T12:14:18;5.03;;;4.53;;
58950;SDS011;44730;53.158;6.398;2022-11-20T12:16:51;5.88;;;4.70;;
58950;SDS011;44730;53.158;6.398;2022-11-20T12:19:23;5.22;;;4.32;;
58950;SDS011;44730;53.158;6.398;2022-11-20T12:30:14;6.22;;;4.45;;
58950;SDS011;44730;53.158;6.398;2022-11-20T12:32:54;5.88;;;4.50;;
58950;SDS011;44730;53.158;6.398;2022-11-20T12:43:22;6.53;;;4.75;;
58950;SDS011;44730;53.158;6.398;2022-11-20T12:46:16;5.82;;;4.70;;
58950;SDS011;44730;53.158;6.398;2022-11-20T12:51:42;6.13;;;5.20;;
58950;SDS011;44730;53.158;6.398;2022-11-20T12:54:46;5.35;;;4.85;;
58950;SDS011;44730;53.158;6.398;2022-11-20T13:00:23;6.47;;;5.00;;
58950;SDS011;44730;53.158;6.398;2022-11-20T13:03:13;5.78;;;4.55;;
58950;SDS011;44730;53.158;6.398;2022-11-20T13:06:17;6.35;;;4.80;;
58950;SDS011;44730;53.158;6.398;2022-11-20T13:09:04;6.43;;;5.47;;
58950;SDS011;44730;53.158;6.398;2022-11-20T13:11:33;6.93;;;4.57;;
58950;SDS011;44730;53.158;6.398;2022-11-20T13:19:40;5.40;;;4.65;;
58950;SDS011;44730;53.158;6.398;2022-11-20T13:22:09;7.03;;;4.90;;
58950;SDS011;44730;53.158;6.398;2022-11-20T13:24:35;5.55;;;4.93;;
58950;SDS011;44730;53.158;6.398;2022-11-20T13:29:37;5.55;;;4.60;;
58950;SDS011;44730;53.158;6.398;2022-11-20T13:32:14;6.15;;;4.68;;
58950;SDS011;44730;53.158;6.398;2022-11-20T13:35:00;5.70;;;5.10;;
58950;SDS011;44730;53.158;6.398;2022-11-20T13:37:32;6.60;;;4.85;;
58950;SDS011;44730;53.158;6.398;2022-11-20T13:40:11;6.93;;;4.93;;
58950;SDS011;44730;53.158;6.398;2022-11-20T13:42:39;5.57;;;5.00;;
58950;SDS011;44730;53.158;6.398;2022-11-20T13:45:11;7.28;;;5.53;;
58950;SDS011;44730;53.158;6.398;2022-11-20T13:47:53;6.47;;;5.22;;
58950;SDS011;44730;53.158;6.398;2022-11-20T13:50:55;6.80;;;5.70;;
58950;SDS011;44730;53.158;6.398;2022-11-20T13:53:51;6.95;;;5.35;;
58950;SDS011;44730;53.158;6.398;2022-11-20T14:02:14;6.60;;;5.07;;
58950;SDS011;44730;53.158;6.398;2022-11-20T14:04:50;5.68;;;4.53;;
58950;SDS011;44730;53.158;6.398;2022-11-20T14:07:18;5.95;;;4.85;;
58950;SDS011;44730;53.158;6.398;2022-11-20T14:09:54;5.68;;;4.55;;
58950;SDS011;44730;53.158;6.398;2022-11-20T14:12:28;7.43;;;5.55;;
58950;SDS011;44730;53.158;6.398;2022-11-20T14:14:59;6.40;;;4.95;;
58950;SDS011;44730;53.158;6.398;2022-11-20T14:20:11;7.82;;;4.85;;
58950;SDS011;44730;53.158;6.398;2022-11-20T14:22:47;6.18;;;4.65;;
58950;SDS011;44730;53.158;6.398;2022-11-20T14:27:43;5.90;;;4.85;;
58950;SDS011;44730;53.158;6.398;2022-11-20T14:30:20;6.00;;;4.70;;
58950;SDS011;44730;53.158;6.398;2022-11-20T14:32:51;6.57;;;5.07;;
58950;SDS011;44730;53.158;6.398;2022-11-20T14:35:25;7.03;;;5.35;;
58950;SDS011;44730;53.158;6.398;2022-11-20T14:37:56;6.93;;;5.60;;
58950;SDS011;44730;53.158;6.398;2022-11-20T14:42:58;8.43;;;5.85;;
58950;SDS011;44730;53.158;6.398;2022-11-20T14:45:48;7.95;;;5.85;;
58950;SDS011;44730;53.158;6.398;2022-11-20T14:48:27;7.90;;;6.03;;
58950;SDS011;44730;53.158;6.398;2022-11-20T14:51:08;9.02;;;6.18;;
58950;SDS011;44730;53.158;6.398;2022-11-20T14:53:48;8.27;;;6.40;;
58950;SDS011;44730;53.158;6.398;2022-11-20T14:56:14;7.72;;;5.88;;
58950;SDS011;44730;53.158;6.398;2022-11-20T14:59:08;9.45;;;6.60;;
58950;SDS011;44730;53.158;6.398;2022-11-20T15:01:34;8.88;;;6.55;;
58950;SDS011;44730;53.158;6.398;2022-11-20T15:04:12;10.18;;;6.80;;
58950;SDS011;44730;53.158;6.398;2022-11-20T15:09:16;9.40;;;6.75;;
58950;SDS011;44730;53.158;6.398;2022-11-20T15:11:50;9.95;;;6.38;;
58950;SDS011;44730;53.158;6.398;2022-11-20T15:14:28;9.18;;;6.65;;
58950;SDS011;44730;53.158;6.398;2022-11-20T15:17:04;8.43;;;6.07;;
58950;SDS011;44730;53.158;6.398;2022-11-20T15:19:34;7.90;;;5.97;;
58950;SDS011;44730;53.158;6.398;2022-11-20T15:22:00;9.15;;;6.78;;
58950;SDS011;44730;53.158;6.398;2022-11-20T15:24:32;8.27;;;6.45;;
58950;SDS011;44730;53.158;6.398;2022-11-20T15:27:10;9.43;;;6.43;;
58950;SDS011;44730;53.158;6.398;2022-11-20T15:29:35;8.82;;;6.53;;
58950;SDS011;44730;53.158;6.398;2022-11-20T15:32:02;9.13;;;6.50;;
58950;SDS011;44730;53.158;6.398;2022-11-20T15:34:28;10.95;;;6.75;;
58950;SDS011;44730;53.158;6.398;2022-11-20T15:36:54;10.68;;;6.55;;
58950;SDS011;44730;53.158;6.398;2022-11-20T15:39:31;10.52;;;6.85;;
58950;SDS011;44730;53.158;6.398;2022-11-20T15:41:56;9.55;;;6.60;;
58950;SDS011;44730;53.158;6.398;2022-11-20T15:44:23;8.13;;;5.97;;
58950;SDS011;44730;53.158;6.398;2022-11-20T15:46:49;8.15;;;6.65;;
58950;SDS011;44730;53.158;6.398;2022-11-20T15:49:24;9.32;;;6.45;;
58950;SDS011;44730;53.158;6.398;2022-11-20T15:51:50;10.60;;;6.65;;
58950;SDS011;44730;53.158;6.398;2022-11-20T15:54:20;9.95;;;7.47;;
58950;SDS011;44730;53.158;6.398;2022-11-20T15:56:47;8.65;;;6.63;;
58950;SDS011;44730;53.158;6.398;2022-11-20T15:59:18;10.35;;;7.45;;
58950;SDS011;44730;53.158;6.398;2022-11-20T16:01:55;9.30;;;6.88;;
58950;SDS011;44730;53.158;6.398;2022-11-20T16:04:21;9.40;;;6.93;;
58950;SDS011;44730;53.158;6.398;2022-11-20T16:06:47;10.15;;;7.07;;
58950;SDS011;44730;53.158;6.398;2022-11-20T16:09:13;9.45;;;6.97;;
58950;SDS011;44730;53.158;6.398;2022-11-20T16:11:41;10.90;;;7.80;;
58950;SDS011;44730;53.158;6.398;2022-11-20T16:14:11;9.88;;;6.95;;
58950;SDS011;44730;53.158;6.398;2022-11-20T16:16:55;9.25;;;7.15;;
58950;SDS011;44730;53.158;6.398;2022-11-20T16:19:21;10.02;;;7.53;;
58950;SDS011;44730;53.158;6.398;2022-11-20T16:22:10;10.18;;;7.10;;
58950;SDS011;44730;53.158;6.398;2022-11-20T16:24:38;13.00;;;8.60;;
58950;SDS011;44730;53.158;6.398;2022-11-20T16:27:04;11.20;;;7.35;;
58950;SDS011;44730;53.158;6.398;2022-11-20T16:29:36;11.55;;;8.07;;
58950;SDS011;44730;53.158;6.398;2022-11-20T16:32:18;10.73;;;7.82;;
58950;SDS011;44730;53.158;6.398;2022-11-20T16:34:47;13.77;;;8.00;;
58950;SDS011;44730;53.158;6.398;2022-11-20T16:37:16;9.60;;;7.60;;
58950;SDS011;44730;53.158;6.398;2022-11-20T16:39:41;12.90;;;8.18;;
58950;SDS011;44730;53.158;6.398;2022-11-20T16:42:07;11.23;;;7.88;;